createdAt,value
2023-01-25T00:02:08.108Z,7.73
2023-01-25T00:05:11.867Z,18.63
2023-01-25T00:08:14.962Z,6.75
2023-01-25T00:11:18.640Z,22.42
2023-01-25T00:14:21.837Z,12.77
2023-01-25T00:17:25.312Z,20.88
2023-01-25T00:20:28.688Z,17.73
2023-01-25T00:23:35.318Z,29.17
2023-01-25T00:26:40.065Z,12.07
2023-01-25T00:29:44.850Z,10.25
2023-01-25T00:33:09.335Z,40.40
2023-01-25T00:36:38.988Z,28.25
2023-01-25T00:39:42.991Z,34.28
2023-01-25T00:42:47.950Z,10.13
2023-01-25T00:46:03.733Z,15.95
2023-01-25T00:49:22.667Z,8.20
2023-01-25T00:52:28.219Z,8.50
2023-01-25T00:55:31.956Z,49.57
2023-01-25T00:58:35.400Z,38.63
2023-01-25T01:01:43.325Z,9.13
2023-01-25T01:04:47.507Z,16.33
2023-01-25T01:07:51.633Z,33.88
2023-01-25T01:11:03.709Z,22.33
2023-01-25T01:14:07.063Z,6.20
2023-01-25T01:17:10.512Z,20.10
2023-01-25T01:20:14.281Z,15.60
2023-01-25T01:23:18.092Z,39.08
2023-01-25T01:26:21.136Z,9.80
2023-01-25T01:29:25.292Z,35.03
2023-01-25T01:32:28.618Z,9.40
2023-01-25T01:35:33.557Z,43.23
2023-01-25T01:38:37.177Z,35.05
2023-01-25T01:41:41.177Z,37.30
2023-01-25T01:44:49.112Z,14.50
2023-01-25T01:47:53.406Z,42.67
2023-01-25T01:51:01.215Z,18.80
2023-01-25T01:54:19.380Z,18.85
2023-01-25T01:57:41.195Z,17.93
2023-01-25T02:00:46.372Z,63.20
2023-01-25T02:03:50.469Z,39.80
2023-01-25T02:06:59.231Z,35.47
2023-01-25T02:10:04.350Z,29.20
2023-01-25T02:13:07.929Z,11.90
2023-01-25T02:16:18.244Z,34.45
2023-01-25T02:19:35.716Z,51.03
2023-01-25T02:22:57.116Z,26.42
2023-01-25T02:26:03.328Z,15.52
2023-01-25T02:29:09.573Z,31.83
2023-01-25T02:32:14.496Z,23.70
2023-01-25T02:35:36.894Z,20.25
2023-01-25T02:38:43.947Z,20.20
2023-01-25T02:41:51.427Z,25.17
2023-01-25T02:44:55.716Z,33.30
2023-01-25T02:48:00.544Z,17.73
2023-01-25T02:51:04.183Z,28.50
2023-01-25T02:54:09.516Z,18.27
2023-01-25T02:57:12.576Z,10.60
2023-01-25T03:00:21.565Z,10.03
2023-01-25T03:03:24.752Z,20.50
2023-01-25T03:06:30.210Z,10.63
2023-01-25T03:09:33.808Z,4.03
2023-01-25T03:12:38.053Z,20.98
2023-01-25T03:15:41.665Z,10.93
2023-01-25T03:18:45.547Z,16.08
2023-01-25T03:21:49.129Z,16.10
2023-01-25T03:24:54.060Z,34.85
2023-01-25T03:27:58.356Z,20.95
2023-01-25T03:31:02.674Z,12.20
2023-01-25T03:34:06.957Z,14.13
2023-01-25T03:37:15.097Z,10.43
2023-01-25T03:40:19.670Z,4.70
2023-01-25T03:43:26.498Z,5.65
2023-01-25T03:46:31.603Z,12.43
2023-01-25T03:49:35.136Z,9.82
2023-01-25T03:52:42.635Z,4.18
2023-01-25T03:55:45.658Z,7.60
2023-01-25T03:58:49.951Z,12.15
2023-01-25T04:01:54.013Z,4.30
2023-01-25T04:04:58.072Z,8.75
2023-01-25T04:08:02.252Z,4.90
2023-01-25T04:11:14.868Z,9.93
2023-01-25T04:14:35.002Z,8.88
2023-01-25T04:17:46.369Z,7.15
2023-01-25T04:20:58.660Z,9.00
2023-01-25T04:24:03.057Z,4.00
2023-01-25T04:27:09.615Z,5.57
2023-01-25T04:30:21.790Z,20.75
2023-01-25T04:33:26.806Z,14.30
2023-01-25T04:36:30.968Z,11.43
2023-01-25T04:39:34.681Z,7.10
2023-01-25T04:42:38.832Z,6.30
2023-01-25T04:45:42.410Z,4.15
2023-01-25T04:48:53.556Z,9.68
2023-01-25T04:51:57.300Z,3.95
2023-01-25T04:55:00.825Z,4.10
2023-01-25T04:58:10.056Z,17.23
2023-01-25T05:01:15.069Z,9.68
2023-01-25T05:04:19.234Z,9.07
2023-01-25T05:07:25.723Z,5.20
2023-01-25T05:10:29.750Z,14.50
2023-01-25T05:13:55.617Z,11.93
2023-01-25T05:17:04.410Z,11.68
2023-01-25T05:20:09.528Z,8.38
2023-01-25T05:23:13.513Z,11.88
2023-01-25T05:26:35.797Z,8.27
2023-01-25T05:29:42.125Z,6.22
2023-01-25T05:32:46.151Z,8.10
2023-01-25T05:35:50.569Z,4.40
2023-01-25T05:38:54.093Z,7.10
2023-01-25T05:41:57.705Z,6.75
2023-01-25T05:45:01.959Z,9.57
2023-01-25T05:48:07.283Z,9.77
2023-01-25T05:51:11.382Z,6.63
2023-01-25T05:54:17.470Z,16.33
2023-01-25T05:57:30.647Z,6.85
2023-01-25T06:00:36.054Z,13.15
2023-01-25T06:03:39.622Z,7.50
2023-01-25T06:06:44.485Z,11.90
2023-01-25T06:09:48.060Z,15.43
2023-01-25T06:12:51.880Z,16.52
2023-01-25T06:15:56.722Z,18.40
2023-01-25T06:19:26.335Z,23.73
2023-01-25T06:22:35.489Z,33.80
2023-01-25T06:25:39.250Z,35.80
2023-01-25T06:28:45.681Z,38.10
2023-01-25T06:31:49.146Z,36.92
2023-01-25T06:34:53.335Z,31.40
2023-01-25T06:37:59.142Z,31.10
2023-01-25T06:41:03.878Z,24.45
2023-01-25T06:44:09.103Z,26.55
2023-01-25T06:47:13.384Z,24.13
2023-01-25T06:50:17.489Z,29.63
2023-01-25T06:53:21.199Z,30.53
2023-01-25T06:56:25.416Z,30.10
2023-01-25T06:59:29.203Z,32.20
2023-01-25T07:02:33.171Z,25.75
2023-01-25T07:05:36.944Z,24.02
2023-01-25T07:08:41.162Z,27.70
2023-01-25T07:11:44.455Z,28.52
2023-01-25T07:14:49.200Z,25.98
2023-01-25T07:17:52.174Z,24.48
2023-01-25T07:20:56.157Z,22.55
2023-01-25T07:24:04.714Z,23.33
2023-01-25T07:27:08.816Z,21.38
2023-01-25T07:30:14.320Z,25.10
2023-01-25T07:33:18.165Z,24.02
2023-01-25T07:36:22.816Z,25.35
2023-01-25T07:39:26.941Z,22.50
2023-01-25T07:42:30.581Z,30.20
2023-01-25T07:45:49.790Z,28.50
2023-01-25T07:48:54.512Z,30.20
2023-01-25T07:51:58.115Z,32.25
2023-01-25T07:55:01.379Z,38.10
2023-01-25T07:58:04.946Z,28.70
2023-01-25T08:01:13.318Z,44.47
2023-01-25T08:04:16.973Z,31.20
2023-01-25T08:07:24.402Z,38.95
2023-01-25T08:10:28.073Z,36.10
2023-01-25T08:13:32.392Z,37.17
2023-01-25T08:16:36.171Z,37.75
2023-01-25T08:19:40.384Z,38.65
2023-01-25T08:22:45.336Z,32.20
2023-01-25T08:25:49.369Z,35.00
2023-01-25T08:28:54.347Z,44.45
2023-01-25T08:31:58.302Z,41.58
2023-01-25T08:35:01.187Z,41.70
2023-01-25T08:38:05.844Z,42.80
2023-01-25T08:41:16.513Z,53.08
2023-01-25T08:44:24.688Z,42.00
2023-01-25T08:47:27.789Z,49.55
2023-01-25T08:50:31.991Z,33.20
2023-01-25T08:53:35.887Z,29.27
2023-01-25T08:56:42.074Z,27.33
2023-01-25T08:59:45.755Z,51.20
2023-01-25T09:02:49.398Z,36.60
2023-01-25T09:05:55.355Z,29.35
2023-01-25T09:09:01.149Z,33.72
2023-01-25T09:12:04.770Z,35.47
2023-01-25T09:15:08.881Z,29.45
2023-01-25T09:18:12.176Z,37.00
2023-01-25T09:21:17.971Z,33.45
2023-01-25T09:24:21.581Z,38.60
2023-01-25T09:27:25.584Z,63.30
2023-01-25T09:30:44.884Z,27.23
2023-01-25T09:33:59.026Z,45.27
2023-01-25T09:37:03.046Z,73.10
2023-01-25T09:40:08.523Z,51.63
2023-01-25T09:43:30.896Z,28.25
2023-01-25T09:46:49.571Z,30.50
2023-01-25T09:50:14.419Z,36.75
2023-01-25T09:53:32.275Z,45.28
2023-01-25T09:56:37.535Z,29.50
2023-01-25T09:59:42.331Z,34.50
2023-01-25T10:02:54.906Z,35.80
2023-01-25T10:06:01.819Z,38.80
2023-01-25T10:09:09.296Z,21.20
2023-01-25T10:12:19.532Z,23.23
2023-01-25T10:15:25.757Z,39.88
2023-01-25T10:18:42.058Z,45.33
2023-01-25T10:22:22.691Z,41.00
2023-01-25T10:25:35.351Z,45.53
2023-01-25T10:28:50.588Z,52.03
2023-01-25T10:32:15.389Z,26.80
2023-01-25T10:35:34.893Z,34.72
2023-01-25T10:38:46.431Z,24.50
2023-01-25T10:41:58.467Z,30.85
2023-01-25T10:45:01.789Z,24.58
2023-01-25T10:48:10.063Z,27.75
2023-01-25T10:51:38.697Z,26.83
2023-01-25T10:54:41.876Z,19.80
2023-01-25T10:57:56.403Z,18.65
2023-01-25T11:01:00.627Z,9.20
2023-01-25T11:04:04.629Z,6.85
2023-01-25T11:07:27.533Z,8.30
2023-01-25T11:10:34.280Z,10.80
2023-01-25T11:13:42.957Z,10.35
2023-01-25T11:16:49.056Z,8.55
2023-01-25T11:20:20.563Z,10.48
2023-01-25T11:23:27.932Z,14.05
2023-01-25T11:26:33.127Z,22.17
2023-01-25T11:29:36.434Z,14.45
2023-01-25T11:32:41.426Z,21.17
2023-01-25T11:36:03.194Z,19.90
2023-01-25T11:39:16.219Z,24.00
2023-01-25T11:42:29.621Z,27.77
2023-01-25T11:46:16.933Z,33.70
2023-01-25T11:49:48.072Z,46.20
2023-01-25T11:53:04.166Z,26.02
2023-01-25T11:56:14.131Z,22.48
2023-01-25T11:59:59.801Z,39.17
2023-01-25T12:03:16.946Z,32.83
2023-01-25T12:06:28.904Z,58.83
2023-01-25T12:09:43.417Z,70.32
2023-01-25T12:13:12.463Z,53.58
2023-01-25T12:16:50.425Z,46.80
2023-01-25T12:20:07.825Z,45.17
2023-01-25T12:23:17.904Z,43.22
2023-01-25T12:26:35.214Z,44.97
2023-01-25T12:29:45.772Z,81.28
2023-01-25T12:33:02.478Z,40.00
2023-01-25T12:36:21.177Z,58.60
2023-01-25T12:39:38.250Z,46.77
2023-01-25T12:42:59.797Z,79.75
2023-01-25T12:46:16.782Z,61.70
2023-01-25T12:49:42.230Z,47.60
2023-01-25T12:52:55.768Z,86.18
2023-01-25T12:55:59.940Z,45.75
2023-01-25T12:59:37.684Z,67.97
2023-01-25T13:02:52.820Z,117.47
2023-01-25T13:06:22.739Z,78.68
2023-01-25T13:09:45.221Z,32.10
2023-01-25T13:13:22.493Z,71.90
2023-01-25T13:16:33.318Z,65.45
2023-01-25T13:19:37.045Z,38.70
2023-01-25T13:22:47.307Z,103.07
2023-01-25T13:25:51.083Z,53.70
2023-01-25T13:28:55.844Z,57.65
2023-01-25T13:32:00.418Z,42.60
2023-01-25T13:35:06.000Z,49.30
2023-01-25T13:38:32.913Z,51.42
2023-01-25T13:41:35.996Z,78.15
2023-01-25T13:44:45.383Z,62.77
2023-01-25T13:48:05.145Z,82.07
2023-01-25T13:51:15.287Z,73.03
2023-01-25T13:54:19.121Z,81.47
2023-01-25T13:57:33.084Z,57.08
2023-01-25T14:00:38.518Z,59.08
2023-01-25T14:03:46.628Z,46.92
2023-01-25T14:06:49.638Z,107.15
2023-01-25T14:09:54.043Z,78.75
2023-01-25T14:13:01.707Z,52.80
2023-01-25T14:16:10.366Z,53.97
2023-01-25T14:19:24.874Z,67.57
2023-01-25T14:22:31.068Z,102.45
2023-01-25T14:25:34.733Z,79.43
2023-01-25T14:28:38.234Z,74.72
2023-01-25T14:31:41.106Z,118.88
2023-01-25T14:34:45.119Z,73.75
2023-01-25T14:37:48.322Z,130.23
2023-01-25T14:40:56.725Z,127.82
2023-01-25T14:44:05.068Z,89.95
2023-01-25T14:47:31.894Z,70.57
2023-01-25T14:50:40.161Z,86.97
2023-01-25T14:53:51.525Z,66.65
2023-01-25T14:57:01.240Z,68.43
2023-01-25T15:00:24.778Z,92.10
2023-01-25T15:03:28.263Z,89.85
2023-01-25T15:06:31.358Z,70.22
2023-01-25T15:09:45.754Z,85.75
2023-01-25T15:13:15.599Z,57.67
2023-01-25T15:16:18.887Z,60.33
2023-01-25T15:19:23.909Z,55.47
2023-01-25T15:22:27.869Z,35.47
2023-01-25T15:25:30.944Z,78.18
2023-01-25T15:28:35.021Z,78.63
2023-01-25T15:31:38.810Z,74.28
2023-01-25T15:34:42.969Z,57.35
2023-01-25T15:37:49.596Z,78.85
2023-01-25T15:40:53.549Z,45.65
2023-01-25T15:43:57.850Z,45.47
2023-01-25T15:47:02.159Z,34.65
2023-01-25T15:50:06.895Z,64.97
2023-01-25T15:53:19.759Z,80.70
2023-01-25T15:56:28.617Z,70.60
2023-01-25T15:59:32.557Z,68.80
2023-01-25T16:02:36.379Z,146.07
2023-01-25T16:05:40.181Z,74.00
2023-01-25T16:08:44.922Z,54.72
2023-01-25T16:11:51.641Z,118.00
2023-01-25T16:14:55.059Z,118.82
2023-01-25T16:17:58.077Z,76.97
2023-01-25T16:21:01.081Z,80.33
2023-01-25T16:24:04.981Z,46.13
2023-01-25T16:27:27.496Z,72.95
2023-01-25T16:30:33.154Z,80.77
2023-01-25T16:33:37.193Z,62.30
2023-01-25T16:36:41.026Z,45.53
2023-01-25T16:39:46.522Z,48.65
2023-01-25T16:42:50.105Z,28.15
2023-01-25T16:45:59.583Z,45.40
2023-01-25T16:49:05.286Z,111.90
2023-01-25T16:52:11.529Z,41.60
2023-01-25T16:55:14.814Z,105.90
2023-01-25T16:58:17.895Z,41.95
2023-01-25T17:01:25.767Z,101.40
2023-01-25T17:04:29.809Z,34.88
2023-01-25T17:07:33.754Z,35.60
2023-01-25T17:10:38.808Z,69.82
2023-01-25T17:13:42.472Z,42.70
2023-01-25T17:16:48.863Z,60.13
2023-01-25T17:19:55.106Z,65.28
2023-01-25T17:22:59.146Z,44.93
2023-01-25T17:26:06.972Z,15.30
2023-01-25T17:29:10.944Z,50.30
2023-01-25T17:32:14.530Z,39.47
2023-01-25T17:35:17.599Z,87.65
2023-01-25T17:38:27.116Z,37.17
2023-01-25T17:41:31.124Z,62.03
2023-01-25T17:44:34.723Z,30.00
2023-01-25T17:47:38.873Z,45.58
2023-01-25T17:50:45.259Z,56.60
2023-01-25T17:53:49.219Z,51.40
2023-01-25T17:56:52.232Z,48.33
2023-01-25T17:59:55.238Z,42.70
2023-01-25T18:02:59.344Z,41.87
2023-01-25T18:06:08.461Z,33.67
2023-01-25T18:09:11.578Z,35.78
2023-01-25T18:12:14.684Z,40.75
2023-01-25T18:15:19.268Z,31.98
2023-01-25T18:18:24.231Z,77.43
2023-01-25T18:21:30.951Z,56.70
2023-01-25T18:24:36.807Z,49.50
2023-01-25T18:27:40.764Z,97.75
2023-01-25T18:30:53.375Z,28.42
2023-01-25T18:33:58.673Z,75.00
2023-01-25T18:37:02.750Z,42.33
2023-01-25T18:40:06.431Z,76.80
2023-01-25T18:43:12.386Z,57.25
2023-01-25T18:46:15.565Z,81.50
2023-01-25T18:49:18.618Z,58.63
2023-01-25T18:52:23.416Z,19.65
2023-01-25T18:55:28.569Z,79.73
2023-01-25T18:58:36.863Z,53.78
2023-01-25T19:01:40.498Z,65.22
2023-01-25T19:04:44.027Z,125.20
2023-01-25T19:07:47.061Z,68.55
2023-01-25T19:10:50.683Z,64.57
2023-01-25T19:13:54.461Z,47.80
2023-01-25T19:16:57.571Z,79.75
2023-01-25T19:20:02.739Z,24.38
2023-01-25T19:23:05.761Z,74.82
2023-01-25T19:26:13.311Z,77.27
2023-01-25T19:29:17.132Z,35.67
2023-01-25T19:32:20.068Z,55.38
2023-01-25T19:35:23.951Z,60.30
2023-01-25T19:38:27.583Z,50.53
2023-01-25T19:41:32.084Z,21.80
2023-01-25T19:44:36.088Z,80.75
2023-01-25T19:47:39.829Z,37.58
2023-01-25T19:50:43.452Z,21.33
2023-01-25T19:53:49.269Z,53.35
2023-01-25T19:56:53.001Z,37.03
2023-01-25T19:59:56.801Z,24.75
2023-01-25T20:03:14.959Z,38.40
2023-01-25T20:06:21.105Z,31.40
2023-01-25T20:09:29.165Z,78.97
2023-01-25T20:12:32.526Z,78.97
2023-01-25T20:15:36.790Z,67.53
2023-01-25T20:18:40.567Z,19.48
2023-01-25T20:21:44.397Z,26.20
2023-01-25T20:24:48.442Z,69.65
2023-01-25T20:27:52.397Z,80.57
2023-01-25T20:30:56.357Z,53.40
2023-01-25T20:34:02.330Z,33.17
2023-01-25T20:37:05.544Z,45.13
2023-01-25T20:40:09.164Z,51.53
2023-01-25T20:43:12.185Z,33.47
2023-01-25T20:46:17.712Z,55.03
2023-01-25T20:49:21.035Z,43.58
2023-01-25T20:52:24.336Z,52.88
2023-01-25T20:55:28.008Z,33.25
2023-01-25T20:58:33.112Z,39.87
2023-01-25T21:01:39.113Z,50.05
2023-01-25T21:04:42.121Z,36.67
2023-01-25T21:07:45.292Z,35.33
2023-01-25T21:10:50.771Z,55.65
2023-01-25T21:13:54.841Z,47.05
2023-01-25T21:17:03.474Z,61.15
2023-01-25T21:20:08.176Z,44.78
2023-01-25T21:23:11.220Z,37.45
2023-01-25T21:26:23.258Z,20.17
2023-01-25T21:29:27.374Z,16.50
2023-01-25T21:32:30.621Z,20.55
2023-01-25T21:35:34.672Z,35.03
2023-01-25T21:38:40.285Z,36.07
2023-01-25T21:41:46.192Z,16.65
2023-01-25T21:45:08.113Z,44.33
2023-01-25T21:48:12.645Z,17.15
2023-01-25T21:51:34.922Z,15.70
2023-01-25T21:54:39.646Z,15.45
2023-01-25T21:57:47.537Z,49.60
2023-01-25T22:00:51.221Z,22.20
2023-01-25T22:03:57.959Z,48.53
2023-01-25T22:07:02.076Z,54.50
2023-01-25T22:10:07.159Z,12.33
2023-01-25T22:13:13.108Z,59.55
2023-01-25T22:16:16.375Z,21.15
2023-01-25T22:19:20.950Z,49.72
2023-01-25T22:22:24.422Z,45.50
2023-01-25T22:25:28.435Z,19.38
2023-01-25T22:28:50.066Z,30.92
2023-01-25T22:31:54.159Z,28.63
2023-01-25T22:34:57.254Z,36.70
2023-01-25T22:38:00.723Z,87.30
2023-01-25T22:41:17.903Z,21.70
2023-01-25T22:44:21.018Z,17.20
2023-01-25T22:47:24.618Z,77.65
2023-01-25T22:50:28.480Z,36.95
2023-01-25T22:53:35.446Z,94.97
2023-01-25T22:56:40.111Z,25.30
2023-01-25T22:59:43.754Z,27.98
2023-01-25T23:02:47.382Z,32.97
2023-01-25T23:05:58.563Z,56.08
2023-01-25T23:09:07.010Z,42.97
2023-01-25T23:12:12.189Z,51.67
2023-01-25T23:15:18.815Z,105.80
2023-01-25T23:18:41.385Z,63.38
2023-01-25T23:21:45.522Z,25.05
2023-01-25T23:24:49.225Z,33.85
2023-01-25T23:27:52.943Z,37.63
2023-01-25T23:31:16.749Z,11.88
2023-01-25T23:34:20.480Z,28.60
2023-01-25T23:37:23.862Z,61.45
2023-01-25T23:40:27.305Z,62.45
2023-01-25T23:43:30.927Z,76.80
2023-01-25T23:46:34.380Z,35.88
2023-01-25T23:49:37.509Z,29.85
2023-01-25T23:52:41.591Z,95.40
2023-01-25T23:55:59.831Z,49.65
2023-01-25T23:59:03.657Z,103.07
